createdAt,value
2017-06-25T00:00:45.173Z,64.30
2017-06-25T00:03:12.698Z,65.50
2017-06-25T00:05:40.275Z,66.20
2017-06-25T00:08:07.785Z,64.80
2017-06-25T00:10:36.097Z,65.70
2017-06-25T00:13:03.653Z,65.70
2017-06-25T00:15:31.215Z,66.50
2017-06-25T00:17:58.749Z,65.80
2017-06-25T00:20:26.270Z,65.80
2017-06-25T00:22:53.796Z,64.00
2017-06-25T00:25:21.359Z,64.20
2017-06-25T00:27:48.883Z,65.00
2017-06-25T00:30:16.421Z,65.10
2017-06-25T00:32:43.955Z,65.40
2017-06-25T00:35:11.569Z,65.60
2017-06-25T00:37:39.130Z,65.40
2017-06-25T00:40:06.680Z,66.60
2017-06-25T00:42:34.983Z,65.30
2017-06-25T00:45:02.532Z,65.30
2017-06-25T00:47:30.075Z,65.00
2017-06-25T00:49:57.634Z,64.90
2017-06-25T00:52:25.182Z,63.60
2017-06-25T00:54:52.730Z,64.10
2017-06-25T00:57:20.247Z,64.30
2017-06-25T00:59:47.767Z,66.80
2017-06-25T01:02:15.314Z,64.00
2017-06-25T01:04:42.828Z,64.90
2017-06-25T01:07:10.365Z,64.60
2017-06-25T01:09:37.886Z,65.20
2017-06-25T01:12:05.442Z,66.30
2017-06-25T01:14:32.958Z,66.40
2017-06-25T01:17:00.528Z,66.20
2017-06-25T01:19:28.026Z,65.60
2017-06-25T01:21:55.543Z,65.10
2017-06-25T01:24:23.142Z,65.20
2017-06-25T01:26:50.691Z,66.70
2017-06-25T01:29:18.228Z,66.40
2017-06-25T01:31:45.775Z,66.10
2017-06-25T01:34:13.298Z,67.10
2017-06-25T01:36:41.608Z,68.30
2017-06-25T01:39:09.130Z,67.40
2017-06-25T01:41:36.659Z,67.10
2017-06-25T01:44:04.211Z,66.80
2017-06-25T01:46:31.738Z,67.60
2017-06-25T01:48:59.243Z,68.60
2017-06-25T01:51:26.781Z,68.90
2017-06-25T01:53:54.291Z,69.20
2017-06-25T01:56:21.814Z,69.50
2017-06-25T01:58:49.316Z,69.60
2017-06-25T02:01:16.850Z,69.50
2017-06-25T02:03:44.354Z,70.10
2017-06-25T02:06:11.899Z,69.70
2017-06-25T02:08:39.421Z,71.00
2017-06-25T02:11:06.977Z,72.20
2017-06-25T02:13:34.492Z,72.80
2017-06-25T02:16:02.006Z,73.50
2017-06-25T02:18:29.604Z,74.00
2017-06-25T02:20:57.881Z,74.60
2017-06-25T02:23:26.187Z,75.80
2017-06-25T02:25:53.690Z,75.80
2017-06-25T02:28:21.250Z,75.50
2017-06-25T02:30:48.782Z,74.10
2017-06-25T02:33:16.314Z,75.30
2017-06-25T02:35:43.926Z,73.20
2017-06-25T02:38:11.471Z,74.50
2017-06-25T02:40:38.995Z,75.00
2017-06-25T02:43:06.546Z,75.80
2017-06-25T02:45:34.049Z,76.10
2017-06-25T02:48:01.594Z,75.90
2017-06-25T02:50:29.096Z,75.70
2017-06-25T02:52:56.638Z,76.30
2017-06-25T02:55:24.189Z,76.50
2017-06-25T02:57:51.727Z,75.60
2017-06-25T03:00:19.238Z,75.70
2017-06-25T03:02:46.784Z,75.30
2017-06-25T03:05:15.130Z,77.70
2017-06-25T03:07:42.705Z,77.30
2017-06-25T03:10:10.210Z,75.60
2017-06-25T03:12:37.742Z,76.00
2017-06-25T03:15:05.290Z,75.10
2017-06-25T03:17:32.825Z,75.00
2017-06-25T03:20:00.353Z,74.30
2017-06-25T03:22:27.898Z,74.00
2017-06-25T03:24:56.175Z,76.20
2017-06-25T03:27:24.469Z,76.50
2017-06-25T03:29:51.974Z,76.40
2017-06-25T03:32:19.522Z,76.50
2017-06-25T03:34:47.033Z,76.80
2017-06-25T03:37:14.581Z,75.50
2017-06-25T03:39:42.862Z,76.50
2017-06-25T03:42:11.189Z,76.60
2017-06-25T03:44:38.705Z,76.50
2017-06-25T03:47:07.034Z,75.40
2017-06-25T03:49:34.536Z,75.30
2017-06-25T03:52:02.895Z,74.60
2017-06-25T03:54:30.394Z,74.60
2017-06-25T03:56:57.945Z,74.90
2017-06-25T03:59:26.271Z,77.40
2017-06-25T04:01:53.785Z,77.40
2017-06-25T04:04:22.089Z,77.70
2017-06-25T04:06:49.595Z,77.60
2017-06-25T04:09:17.131Z,77.10
2017-06-25T04:11:44.650Z,75.80
2017-06-25T04:14:12.177Z,75.80
2017-06-25T04:16:39.717Z,76.70
2017-06-25T04:19:07.272Z,75.90
2017-06-25T04:21:34.825Z,77.10
2017-06-25T04:24:02.419Z,75.90
2017-06-25T04:26:29.962Z,75.00
2017-06-25T04:28:57.502Z,74.70
2017-06-25T04:31:25.026Z,74.50
2017-06-25T04:33:52.582Z,75.80
2017-06-25T04:36:20.094Z,75.80
2017-06-25T04:38:47.602Z,74.80
2017-06-25T04:41:15.118Z,76.20
2017-06-25T04:43:42.714Z,76.70
2017-06-25T04:46:11.010Z,77.40
2017-06-25T04:48:38.651Z,77.30
2017-06-25T04:51:06.990Z,76.90
2017-06-25T04:53:34.525Z,76.90
2017-06-25T04:56:02.029Z,75.80
2017-06-25T04:58:29.572Z,75.70
2017-06-25T05:00:57.071Z,75.30
2017-06-25T05:03:25.426Z,75.00
2017-06-25T05:05:52.942Z,75.00
2017-06-25T05:08:20.510Z,76.30
2017-06-25T05:10:48.038Z,75.40
2017-06-25T05:13:15.629Z,75.60
2017-06-25T05:15:43.129Z,75.70
2017-06-25T05:18:10.677Z,75.80
2017-06-25T05:20:38.179Z,75.60
2017-06-25T05:23:05.707Z,75.50
2017-06-25T05:25:33.213Z,75.70
2017-06-25T05:28:00.733Z,74.30
2017-06-25T05:30:28.266Z,78.40
2017-06-25T05:32:55.794Z,77.00
2017-06-25T05:35:23.300Z,76.20
2017-06-25T05:37:50.833Z,76.50
2017-06-25T05:40:18.362Z,74.60
2017-06-25T05:42:45.862Z,75.60
2017-06-25T05:45:13.408Z,75.70
2017-06-25T05:47:40.917Z,76.10
2017-06-25T05:50:09.232Z,74.90
2017-06-25T05:52:36.798Z,74.80
2017-06-25T05:55:04.329Z,74.30
2017-06-25T05:57:31.850Z,73.50
2017-06-25T05:59:59.395Z,73.50
2017-06-25T06:02:26.942Z,73.40
2017-06-25T06:04:54.468Z,73.20
2017-06-25T06:07:21.990Z,72.50
2017-06-25T06:09:49.553Z,73.30
2017-06-25T06:12:17.064Z,72.60
2017-06-25T06:14:44.604Z,72.40
2017-06-25T06:17:12.143Z,73.20
2017-06-25T06:19:39.695Z,71.00
2017-06-25T06:22:07.977Z,71.20
2017-06-25T06:24:36.269Z,71.80
2017-06-25T06:27:03.813Z,71.70
2017-06-25T06:29:32.143Z,72.00
2017-06-25T06:31:59.718Z,72.00
2017-06-25T06:34:27.263Z,70.50
2017-06-25T06:36:54.805Z,70.20
2017-06-25T06:39:22.372Z,72.00
2017-06-25T06:41:49.913Z,70.80
2017-06-25T06:44:17.542Z,70.50
2017-06-25T06:46:45.062Z,71.50
2017-06-25T06:49:12.590Z,70.70
2017-06-25T06:51:40.129Z,71.00
2017-06-25T06:54:08.439Z,70.50
2017-06-25T06:56:35.952Z,70.50
2017-06-25T06:59:03.554Z,68.10
2017-06-25T07:01:31.089Z,66.40
2017-06-25T07:03:59.419Z,65.10
2017-06-25T07:06:26.961Z,65.10
2017-06-25T07:08:54.537Z,65.50
2017-06-25T07:11:22.054Z,65.30
2017-06-25T07:13:50.379Z,67.60
2017-06-25T07:16:17.943Z,67.60
2017-06-25T07:18:45.486Z,68.00
2017-06-25T07:21:13.014Z,68.30
2017-06-25T07:23:41.300Z,66.00
2017-06-25T07:26:08.849Z,66.00
2017-06-25T07:28:37.136Z,65.90
2017-06-25T07:31:04.662Z,65.80
2017-06-25T07:33:32.202Z,64.90
2017-06-25T07:35:59.751Z,64.50
2017-06-25T07:38:27.267Z,65.20
2017-06-25T07:40:55.588Z,65.10
2017-06-25T07:43:23.129Z,65.00
2017-06-25T07:45:50.691Z,67.00
2017-06-25T07:48:18.195Z,65.80
2017-06-25T07:50:45.735Z,64.40
2017-06-25T07:53:13.278Z,63.50
2017-06-25T07:55:40.837Z,62.10
2017-06-25T07:58:08.410Z,62.40
2017-06-25T08:00:36.009Z,62.70
2017-06-25T08:03:04.299Z,61.50
2017-06-25T08:05:32.627Z,60.60
2017-06-25T08:08:00.145Z,60.60
2017-06-25T08:10:27.718Z,61.60
2017-06-25T08:12:55.261Z,61.50
2017-06-25T08:15:22.825Z,62.90
2017-06-25T08:17:50.334Z,63.80
2017-06-25T08:20:17.882Z,62.10
2017-06-25T08:22:45.394Z,63.70
2017-06-25T08:25:12.956Z,61.80
2017-06-25T08:27:40.510Z,60.50
2017-06-25T08:30:08.798Z,59.80
2017-06-25T08:32:37.074Z,60.10
2017-06-25T08:35:04.596Z,60.10
2017-06-25T08:37:32.154Z,59.50
2017-06-25T08:39:59.697Z,59.30
2017-06-25T08:42:27.259Z,60.60
2017-06-25T08:44:54.781Z,59.50
2017-06-25T08:47:22.297Z,60.00
2017-06-25T08:49:49.842Z,60.30
2017-06-25T08:52:17.366Z,58.50
2017-06-25T08:54:44.924Z,58.90
2017-06-25T08:57:12.446Z,55.80
2017-06-25T08:59:40.010Z,56.80
2017-06-25T09:02:07.562Z,57.00
2017-06-25T09:04:35.841Z,54.20
2017-06-25T09:07:04.180Z,52.70
2017-06-25T09:09:31.799Z,52.50
2017-06-25T09:11:59.327Z,49.70
2017-06-25T09:14:26.875Z,49.70
2017-06-25T09:16:54.405Z,47.60
2017-06-25T09:19:21.952Z,45.30
2017-06-25T09:21:50.264Z,41.00
2017-06-25T09:24:17.782Z,41.00
2017-06-25T09:26:46.093Z,41.20
2017-06-25T09:29:13.629Z,41.10
2017-06-25T09:31:41.182Z,41.10
2017-06-25T09:34:09.458Z,38.70
2017-06-25T09:36:37.770Z,35.90
2017-06-25T09:39:05.294Z,35.60
2017-06-25T09:41:33.612Z,35.70
2017-06-25T09:44:01.130Z,35.70
2017-06-25T09:46:29.446Z,33.90
2017-06-25T09:48:56.983Z,33.80
2017-06-25T09:51:24.513Z,35.30
2017-06-25T09:53:52.010Z,37.20
2017-06-25T09:56:19.534Z,39.60
2017-06-25T09:58:47.049Z,42.60
2017-06-25T10:01:14.593Z,43.20
2017-06-25T10:03:42.141Z,48.20
2017-06-25T10:06:09.741Z,52.40
2017-06-25T10:08:37.280Z,53.10
2017-06-25T10:11:04.794Z,57.20
2017-06-25T10:13:33.125Z,58.60
2017-06-25T10:16:00.627Z,58.50
2017-06-25T10:18:28.950Z,56.20
2017-06-25T10:20:56.474Z,56.20
2017-06-25T10:23:24.025Z,58.00
2017-06-25T10:25:51.578Z,56.80
2017-06-25T10:28:19.915Z,57.20
2017-06-25T10:30:47.434Z,57.20
2017-06-25T10:33:15.031Z,57.40
2017-06-25T10:35:42.566Z,56.60
2017-06-25T10:38:10.106Z,55.90
2017-06-25T10:40:38.398Z,55.60
2017-06-25T10:43:05.946Z,55.60
2017-06-25T10:45:33.463Z,55.00
2017-06-25T10:48:01.034Z,55.40
2017-06-25T10:50:28.562Z,53.80
2017-06-25T10:52:56.106Z,53.30
2017-06-25T10:55:23.614Z,51.10
2017-06-25T10:57:51.193Z,50.30
2017-06-25T11:00:18.694Z,49.30
2017-06-25T11:02:46.214Z,47.20
2017-06-25T11:05:13.722Z,45.80
2017-06-25T11:07:41.278Z,46.60
2017-06-25T11:10:08.830Z,46.10
2017-06-25T11:12:36.381Z,47.30
2017-06-25T11:15:03.923Z,47.40
2017-06-25T11:17:32.222Z,45.90
2017-06-25T11:19:59.741Z,45.70
2017-06-25T11:22:27.339Z,46.20
2017-06-25T11:24:54.884Z,47.50
2017-06-25T11:27:22.410Z,45.60
2017-06-25T11:29:49.922Z,47.00
2017-06-25T11:32:17.447Z,47.70
2017-06-25T11:34:44.967Z,48.30
2017-06-25T11:37:12.609Z,49.00
2017-06-25T11:39:40.126Z,49.00
2017-06-25T11:42:07.666Z,49.40
2017-06-25T11:44:35.170Z,51.20
2017-06-25T11:47:02.744Z,54.20
2017-06-25T11:49:30.326Z,58.00
2017-06-25T11:51:57.834Z,56.90
2017-06-25T11:54:25.454Z,56.60
2017-06-25T11:56:52.996Z,56.50
2017-06-25T11:59:20.571Z,56.50
2017-06-25T12:01:48.099Z,55.80
2017-06-25T12:04:15.639Z,55.80
2017-06-25T12:06:43.922Z,56.30
2017-06-25T12:09:11.455Z,56.30
2017-06-25T12:11:38.999Z,54.80
2017-06-25T12:14:06.548Z,55.30
2017-06-25T12:16:34.082Z,54.80
2017-06-25T12:19:01.642Z,52.70
2017-06-25T12:21:29.165Z,51.60
2017-06-25T12:23:56.703Z,51.20
2017-06-25T12:26:24.228Z,50.60
2017-06-25T12:28:51.779Z,50.30
2017-06-25T12:31:19.305Z,49.00
2017-06-25T12:33:47.610Z,49.60
2017-06-25T12:36:15.174Z,49.00
2017-06-25T12:38:42.734Z,47.90
2017-06-25T12:41:10.309Z,47.80
2017-06-25T12:43:37.854Z,47.30
2017-06-25T12:46:05.362Z,46.60
2017-06-25T12:48:32.882Z,43.50
2017-06-25T12:51:00.424Z,44.00
2017-06-25T12:53:27.986Z,42.20
2017-06-25T12:55:55.502Z,42.80
2017-06-25T12:58:23.052Z,41.40
2017-06-25T13:00:50.589Z,43.90
2017-06-25T13:03:18.127Z,44.80
2017-06-25T13:05:45.680Z,47.50
2017-06-25T13:08:13.247Z,47.00
2017-06-25T13:10:40.765Z,47.40
2017-06-25T13:13:08.344Z,47.70
2017-06-25T13:15:36.621Z,49.00
2017-06-25T13:18:04.926Z,48.50
2017-06-25T13:20:32.451Z,49.00
2017-06-25T13:23:00.734Z,49.50
2017-06-25T13:25:29.042Z,48.80
2017-06-25T13:27:56.582Z,48.80
2017-06-25T13:30:24.141Z,50.20
2017-06-25T13:32:51.663Z,50.10
2017-06-25T13:35:19.190Z,49.60
2017-06-25T13:37:46.722Z,49.20
2017-06-25T13:40:14.309Z,50.20
2017-06-25T13:42:41.855Z,52.20
2017-06-25T13:45:09.401Z,51.60
2017-06-25T13:47:36.930Z,51.60
2017-06-25T13:50:04.464Z,52.20
2017-06-25T13:52:32.018Z,51.20
2017-06-25T13:54:59.556Z,50.50
2017-06-25T13:57:27.082Z,50.20
2017-06-25T13:59:55.389Z,50.40
2017-06-25T14:02:22.908Z,50.10
2017-06-25T14:04:50.445Z,49.70
2017-06-25T14:07:17.960Z,49.90
2017-06-25T14:09:45.492Z,49.70
2017-06-25T14:12:13.046Z,50.20
2017-06-25T14:14:40.584Z,51.20
2017-06-25T14:17:08.099Z,50.30
2017-06-25T14:19:35.630Z,50.50
2017-06-25T14:22:03.138Z,50.50
2017-06-25T14:24:30.733Z,50.50
2017-06-25T14:26:58.258Z,49.70
2017-06-25T14:29:25.828Z,48.50
2017-06-25T14:31:53.346Z,48.00
2017-06-25T14:34:21.664Z,48.00
2017-06-25T14:36:49.191Z,48.00
2017-06-25T14:39:16.752Z,47.90
2017-06-25T14:41:44.289Z,48.90
2017-06-25T14:44:11.864Z,49.30
2017-06-25T14:46:40.151Z,50.40
2017-06-25T14:49:07.677Z,50.30
2017-06-25T14:51:35.210Z,49.10
2017-06-25T14:54:02.868Z,48.80
2017-06-25T14:56:30.394Z,49.80
2017-06-25T14:58:57.949Z,50.50
2017-06-25T15:01:25.463Z,50.60
2017-06-25T15:03:52.976Z,51.20
2017-06-25T15:06:20.538Z,50.50
2017-06-25T15:08:48.037Z,50.20
2017-06-25T15:11:15.592Z,51.10
2017-06-25T15:13:43.181Z,50.40
2017-06-25T15:16:10.723Z,49.30
2017-06-25T15:18:38.254Z,49.60
2017-06-25T15:21:05.774Z,49.50
2017-06-25T15:23:33.299Z,49.30
2017-06-25T15:26:00.820Z,48.70
2017-06-25T15:28:28.335Z,49.70
2017-06-25T15:30:55.910Z,48.80
2017-06-25T15:33:23.504Z,47.70
2017-06-25T15:35:51.071Z,47.30
2017-06-25T15:38:18.628Z,46.30
2017-06-25T15:40:46.164Z,45.00
2017-06-25T15:43:14.441Z,45.90
2017-06-25T15:45:41.998Z,45.90
2017-06-25T15:48:10.328Z,45.80
2017-06-25T15:50:37.938Z,45.70
2017-06-25T15:53:06.218Z,45.60
2017-06-25T15:55:33.791Z,45.60
2017-06-25T15:58:01.329Z,45.40
2017-06-25T16:00:28.882Z,45.60
2017-06-25T16:02:56.447Z,46.10
2017-06-25T16:05:23.998Z,45.70
2017-06-25T16:07:51.570Z,45.30
2017-06-25T16:10:19.140Z,44.90
2017-06-25T16:12:46.690Z,46.60
2017-06-25T16:15:14.238Z,45.70
2017-06-25T16:17:41.744Z,47.10
2017-06-25T16:20:09.309Z,47.10
2017-06-25T16:22:36.885Z,46.60
2017-06-25T16:25:04.409Z,46.00
2017-06-25T16:27:31.922Z,47.10
2017-06-25T16:29:59.477Z,45.90
2017-06-25T16:32:26.997Z,45.20
2017-06-25T16:34:54.554Z,45.00
2017-06-25T16:37:22.088Z,47.00
2017-06-25T16:39:49.652Z,44.70
2017-06-25T16:42:17.181Z,44.60
2017-06-25T16:44:44.744Z,44.90
2017-06-25T16:47:12.294Z,45.60
2017-06-25T16:49:39.819Z,46.30
2017-06-25T16:52:07.385Z,45.70
2017-06-25T16:54:34.919Z,46.10
2017-06-25T16:57:02.445Z,45.80
2017-06-25T16:59:29.970Z,45.90
2017-06-25T17:01:57.470Z,45.50
2017-06-25T17:04:25.030Z,45.70
2017-06-25T17:06:52.562Z,45.40
2017-06-25T17:09:20.114Z,46.10
2017-06-25T17:11:48.642Z,46.80
2017-06-25T17:14:17.037Z,46.20
2017-06-25T17:16:44.581Z,46.20
2017-06-25T17:19:12.861Z,44.90
2017-06-25T17:21:40.412Z,44.80
2017-06-25T17:24:07.933Z,44.90
2017-06-25T17:26:35.447Z,45.00
2017-06-25T17:29:03.019Z,44.70
2017-06-25T17:31:30.522Z,44.50
2017-06-25T17:33:58.071Z,45.10
2017-06-25T17:36:25.587Z,44.30
2017-06-25T17:38:53.144Z,45.60
2017-06-25T17:41:20.671Z,45.70
2017-06-25T17:43:48.175Z,45.70
2017-06-25T17:46:15.734Z,45.20
2017-06-25T17:48:43.249Z,45.80
2017-06-25T17:51:10.751Z,45.10
2017-06-25T17:53:38.316Z,45.00
2017-06-25T17:56:05.835Z,45.00
2017-06-25T17:58:33.386Z,45.70
2017-06-25T18:01:00.893Z,45.50
2017-06-25T18:03:28.457Z,44.80
2017-06-25T18:05:56.026Z,45.00
2017-06-25T18:08:23.550Z,44.90
2017-06-25T18:10:51.858Z,46.00
2017-06-25T18:13:19.366Z,46.00
2017-06-25T18:15:46.907Z,45.60
2017-06-25T18:18:14.407Z,45.50
2017-06-25T18:20:42.970Z,45.50
2017-06-25T18:23:10.514Z,45.50
2017-06-25T18:25:38.014Z,44.20
2017-06-25T18:28:05.557Z,44.00
2017-06-25T18:30:33.060Z,44.40
2017-06-25T18:33:00.602Z,44.70
2017-06-25T18:35:28.130Z,44.00
2017-06-25T18:37:55.684Z,44.00
2017-06-25T18:40:23.210Z,44.30
2017-06-25T18:42:50.714Z,44.50
2017-06-25T18:45:18.259Z,44.50
2017-06-25T18:47:45.779Z,44.50
2017-06-25T18:50:13.351Z,44.80
2017-06-25T18:52:40.863Z,44.50
2017-06-25T18:55:08.472Z,44.40
2017-06-25T18:57:36.007Z,44.40
2017-06-25T19:00:03.546Z,44.50
2017-06-25T19:02:31.883Z,45.60
2017-06-25T19:04:59.410Z,45.50
2017-06-25T19:07:26.949Z,45.20
2017-06-25T19:09:54.451Z,44.60
2017-06-25T19:12:21.991Z,44.40
2017-06-25T19:14:49.527Z,47.80
2017-06-25T19:17:17.046Z,46.20
2017-06-25T19:19:44.578Z,48.00
2017-06-25T19:22:12.108Z,46.40
2017-06-25T19:24:39.652Z,46.50
2017-06-25T19:27:07.916Z,47.90
2017-06-25T19:29:35.439Z,47.20
2017-06-25T19:32:02.971Z,46.40
2017-06-25T19:34:30.508Z,46.30
2017-06-25T19:36:58.792Z,47.60
2017-06-25T19:39:26.322Z,47.10
2017-06-25T19:41:53.887Z,48.60
2017-06-25T19:44:21.422Z,47.00
2017-06-25T19:46:48.956Z,48.00
2017-06-25T19:49:16.499Z,47.20
2017-06-25T19:51:43.997Z,47.40
2017-06-25T19:54:11.534Z,47.60
2017-06-25T19:56:39.055Z,48.00
2017-06-25T19:59:06.602Z,46.50
2017-06-25T20:01:34.166Z,47.30
2017-06-25T20:04:01.703Z,47.20
2017-06-25T20:06:29.228Z,46.60
2017-06-25T20:08:56.750Z,46.40
2017-06-25T20:11:24.285Z,47.60
2017-06-25T20:13:51.885Z,46.80
2017-06-25T20:16:19.430Z,47.30
2017-06-25T20:18:46.977Z,47.80
2017-06-25T20:21:14.504Z,49.50
2017-06-25T20:23:42.058Z,50.50
2017-06-25T20:26:09.582Z,51.20
2017-06-25T20:28:37.134Z,51.60
2017-06-25T20:31:05.454Z,52.20
2017-06-25T20:33:32.992Z,52.20
2017-06-25T20:36:00.517Z,52.20
2017-06-25T20:38:28.054Z,52.60
2017-06-25T20:40:55.569Z,52.90
2017-06-25T20:43:23.111Z,52.90
2017-06-25T20:45:50.686Z,53.00
2017-06-25T20:48:18.256Z,53.10
2017-06-25T20:50:45.788Z,53.40
2017-06-25T20:53:13.309Z,53.20
2017-06-25T20:55:40.846Z,53.30
2017-06-25T20:58:08.374Z,53.50
2017-06-25T21:00:35.949Z,53.80
2017-06-25T21:03:03.480Z,53.60
2017-06-25T21:05:31.030Z,53.70
2017-06-25T21:07:58.542Z,53.40
2017-06-25T21:10:26.087Z,54.00
2017-06-25T21:12:53.636Z,53.50
2017-06-25T21:15:21.941Z,53.30
2017-06-25T21:17:49.494Z,53.10
2017-06-25T21:20:17.042Z,52.80
2017-06-25T21:22:44.637Z,54.00
2017-06-25T21:25:12.218Z,53.30
2017-06-25T21:27:39.723Z,53.70
2017-06-25T21:30:07.274Z,53.60
2017-06-25T21:32:35.557Z,53.50
2017-06-25T21:35:03.096Z,53.50
2017-06-25T21:37:30.611Z,53.90
2017-06-25T21:39:58.138Z,53.80
2017-06-25T21:42:25.664Z,53.80
2017-06-25T21:44:53.187Z,53.50
2017-06-25T21:47:20.747Z,53.50
2017-06-25T21:49:48.308Z,53.40
2017-06-25T21:52:15.813Z,53.90
2017-06-25T21:54:43.366Z,54.30
2017-06-25T21:57:10.895Z,54.70
2017-06-25T21:59:38.425Z,54.50
2017-06-25T22:02:05.966Z,55.00
2017-06-25T22:04:34.270Z,54.30
2017-06-25T22:07:01.835Z,54.20
2017-06-25T22:09:29.414Z,54.50
2017-06-25T22:11:56.955Z,54.20
2017-06-25T22:14:24.626Z,54.20
2017-06-25T22:16:52.182Z,54.40
2017-06-25T22:19:19.738Z,53.10
2017-06-25T22:21:47.270Z,53.60
2017-06-25T22:24:14.806Z,53.10
2017-06-25T22:26:42.364Z,53.10
2017-06-25T22:29:09.907Z,51.80
2017-06-25T22:31:37.471Z,52.20
2017-06-25T22:34:05.032Z,52.20
2017-06-25T22:36:32.570Z,52.10
2017-06-25T22:39:00.106Z,51.60
2017-06-25T22:41:27.701Z,51.10
2017-06-25T22:43:55.218Z,51.10
2017-06-25T22:46:22.766Z,51.60
2017-06-25T22:48:51.071Z,52.00
2017-06-25T22:51:18.627Z,52.00
2017-06-25T22:53:46.179Z,52.00
2017-06-25T22:56:13.739Z,52.10
2017-06-25T22:58:41.254Z,52.10
2017-06-25T23:01:08.797Z,52.00
2017-06-25T23:03:36.343Z,51.70
2017-06-25T23:06:03.906Z,51.80
2017-06-25T23:08:31.485Z,52.20
2017-06-25T23:10:59.056Z,52.00
2017-06-25T23:13:26.601Z,52.30
2017-06-25T23:15:54.128Z,52.70
2017-06-25T23:18:21.673Z,52.60
2017-06-25T23:20:49.228Z,52.70
2017-06-25T23:23:17.524Z,52.20
2017-06-25T23:25:45.067Z,52.10
2017-06-25T23:28:13.337Z,52.60
2017-06-25T23:30:41.682Z,53.00
2017-06-25T23:33:09.217Z,53.00
2017-06-25T23:35:36.795Z,53.40
2017-06-25T23:38:04.311Z,53.20
2017-06-25T23:40:31.930Z,53.00
2017-06-25T23:42:59.465Z,53.10
2017-06-25T23:45:26.994Z,53.40
2017-06-25T23:47:54.550Z,53.30
2017-06-25T23:50:22.161Z,53.40
2017-06-25T23:52:49.679Z,53.10
2017-06-25T23:55:17.234Z,53.20
2017-06-25T23:57:44.741Z,53.10
